createdAt,value
2018-12-20T00:01:52.769Z,108.43
2018-12-20T00:04:21.692Z,106.67
2018-12-20T00:06:50.284Z,101.97
2018-12-20T00:09:19.157Z,103.67
2018-12-20T00:11:47.856Z,108.90
2018-12-20T00:14:16.849Z,105.17
2018-12-20T00:16:47.572Z,111.17
2018-12-20T00:19:24.935Z,102.77
2018-12-20T00:21:53.565Z,101.03
2018-12-20T00:24:22.409Z,114.03
2018-12-20T00:26:50.990Z,112.77
2018-12-20T00:29:19.878Z,110.63
2018-12-20T00:31:48.575Z,117.27
2018-12-20T00:34:17.624Z,109.57
2018-12-20T00:36:46.310Z,104.10
2018-12-20T00:39:15.573Z,113.17
2018-12-20T00:41:44.180Z,105.43
2018-12-20T00:44:12.922Z,106.60
2018-12-20T00:46:41.587Z,102.70
2018-12-20T00:49:10.298Z,103.13
2018-12-20T00:51:39.332Z,100.60
2018-12-20T00:54:08.115Z,104.47
2018-12-20T00:56:36.770Z,105.20
2018-12-20T00:59:05.372Z,114.27
2018-12-20T01:01:34.026Z,110.13
2018-12-20T01:04:03.104Z,104.43
2018-12-20T01:06:31.862Z,108.47
2018-12-20T01:09:00.460Z,108.87
2018-12-20T01:11:29.101Z,107.97
2018-12-20T01:13:57.982Z,122.17
2018-12-20T01:16:26.909Z,105.97
2018-12-20T01:18:55.835Z,110.90
2018-12-20T01:21:24.577Z,111.97
2018-12-20T01:23:53.438Z,122.80
2018-12-20T01:26:22.112Z,118.37
2018-12-20T01:28:50.987Z,124.10
2018-12-20T01:31:19.566Z,130.60
2018-12-20T01:33:48.237Z,111.13
2018-12-20T01:36:16.954Z,120.50
2018-12-20T01:38:45.651Z,128.83
2018-12-20T01:41:14.333Z,123.83
2018-12-20T01:43:43.242Z,121.97
2018-12-20T01:46:11.830Z,124.03
2018-12-20T01:48:41.793Z,119.27
2018-12-20T01:51:10.474Z,108.50
2018-12-20T01:53:39.628Z,111.30
2018-12-20T01:56:08.482Z,114.33
2018-12-20T01:58:37.431Z,114.13
2018-12-20T02:01:06.308Z,112.20
2018-12-20T02:03:35.227Z,112.40
2018-12-20T02:06:04.251Z,118.13
2018-12-20T02:08:33.226Z,114.27
2018-12-20T02:11:02.021Z,115.53
2018-12-20T02:13:31.149Z,108.33
2018-12-20T02:15:59.847Z,113.40
2018-12-20T02:18:28.986Z,97.00
2018-12-20T02:20:57.852Z,109.37
2018-12-20T02:23:26.646Z,109.17
2018-12-20T02:25:55.270Z,108.43
2018-12-20T02:28:24.150Z,107.87
2018-12-20T02:30:53.069Z,106.87
2018-12-20T02:33:22.210Z,111.20
2018-12-20T02:35:51.079Z,103.67
2018-12-20T02:38:19.943Z,103.73
2018-12-20T02:40:48.535Z,110.00
2018-12-20T02:43:17.321Z,110.60
2018-12-20T02:45:46.072Z,112.97
2018-12-20T02:48:14.946Z,107.00
2018-12-20T02:50:43.749Z,110.97
2018-12-20T02:53:12.955Z,106.57
2018-12-20T02:55:41.763Z,103.60
2018-12-20T02:58:10.666Z,105.33
2018-12-20T03:00:39.319Z,107.20
2018-12-20T03:03:08.091Z,104.77
2018-12-20T03:05:36.713Z,106.07
2018-12-20T03:08:05.637Z,96.57
2018-12-20T03:10:34.436Z,106.17
2018-12-20T03:13:03.240Z,103.70
2018-12-20T03:15:31.832Z,105.87
2018-12-20T03:18:00.766Z,105.50
2018-12-20T03:20:29.438Z,100.60
2018-12-20T03:22:58.067Z,102.03
2018-12-20T03:25:26.965Z,100.43
2018-12-20T03:27:55.925Z,103.73
2018-12-20T03:30:24.785Z,103.70
2018-12-20T03:32:53.669Z,105.07
2018-12-20T03:35:22.387Z,97.20
2018-12-20T03:37:51.221Z,100.83
2018-12-20T03:40:19.912Z,105.37
2018-12-20T03:42:48.511Z,95.57
2018-12-20T03:45:17.501Z,107.63
2018-12-20T03:47:46.225Z,98.70
2018-12-20T03:50:15.079Z,101.63
2018-12-20T03:52:44.231Z,97.40
2018-12-20T03:55:12.943Z,104.17
2018-12-20T03:57:42.007Z,98.83
2018-12-20T04:00:10.950Z,90.53
2018-12-20T04:02:39.782Z,96.93
2018-12-20T04:05:08.508Z,99.23
2018-12-20T04:07:37.167Z,113.10
2018-12-20T04:10:06.052Z,127.73
2018-12-20T04:12:34.863Z,165.83
2018-12-20T04:15:03.425Z,153.13
2018-12-20T04:17:32.142Z,152.50
2018-12-20T04:20:00.730Z,149.80
2018-12-20T04:22:29.603Z,149.63
2018-12-20T04:24:58.188Z,159.10
2018-12-20T04:27:26.919Z,119.20
2018-12-20T04:29:55.689Z,113.70
2018-12-20T04:32:24.440Z,111.50
2018-12-20T04:34:53.047Z,103.43
2018-12-20T04:37:22.204Z,121.27
2018-12-20T04:39:50.970Z,139.80
2018-12-20T04:42:19.624Z,120.13
2018-12-20T04:44:48.295Z,114.37
2018-12-20T04:47:16.876Z,126.03
2018-12-20T04:49:45.716Z,142.87
2018-12-20T04:52:14.724Z,128.80
2018-12-20T04:54:43.399Z,149.33
2018-12-20T04:57:12.128Z,146.90
2018-12-20T04:59:40.867Z,121.07
2018-12-20T05:02:09.469Z,132.60
2018-12-20T05:04:38.163Z,121.83
2018-12-20T05:07:06.821Z,104.33
2018-12-20T05:09:35.524Z,108.57
2018-12-20T05:12:04.350Z,95.27
2018-12-20T05:14:33.148Z,97.17
2018-12-20T05:17:01.983Z,91.27
2018-12-20T05:19:30.742Z,92.20
2018-12-20T05:21:59.390Z,95.67
2018-12-20T05:24:28.259Z,101.27
2018-12-20T05:26:56.925Z,91.60
2018-12-20T05:29:25.472Z,84.40
2018-12-20T05:31:54.038Z,89.17
2018-12-20T05:34:22.597Z,91.20
2018-12-20T05:36:51.348Z,98.57
2018-12-20T05:39:20.029Z,107.47
2018-12-20T05:41:48.903Z,111.90
2018-12-20T05:44:17.777Z,130.87
2018-12-20T05:46:46.475Z,130.70
2018-12-20T05:49:15.017Z,117.83
2018-12-20T05:51:43.600Z,103.77
2018-12-20T05:54:12.312Z,106.00
2018-12-20T05:56:41.236Z,101.13
2018-12-20T05:59:09.875Z,101.07
2018-12-20T06:01:38.879Z,98.90
2018-12-20T06:04:07.429Z,97.70
2018-12-20T06:06:36.255Z,104.67
2018-12-20T06:09:07.683Z,97.17
2018-12-20T06:11:36.803Z,103.10
2018-12-20T06:14:05.556Z,96.87
2018-12-20T06:16:34.384Z,101.47
2018-12-20T06:19:03.150Z,107.33
2018-12-20T06:21:31.970Z,120.43
2018-12-20T06:24:00.494Z,110.33
2018-12-20T06:26:29.057Z,103.63
2018-12-20T06:28:57.567Z,105.97
2018-12-20T06:31:26.322Z,107.43
2018-12-20T06:33:54.852Z,102.03
2018-12-20T06:36:23.548Z,109.30
2018-12-20T06:38:52.063Z,112.17
2018-12-20T06:41:20.784Z,104.67
2018-12-20T06:43:49.388Z,104.03
2018-12-20T06:46:21.323Z,97.50
2018-12-20T06:48:48.786Z,112.10
2018-12-20T06:51:17.597Z,109.43
2018-12-20T06:53:46.175Z,107.87
2018-12-20T06:56:15.070Z,110.60
2018-12-20T06:58:43.598Z,105.07
2018-12-20T07:01:12.364Z,103.37
2018-12-20T07:03:40.896Z,116.50
2018-12-20T07:06:09.463Z,122.27
2018-12-20T07:08:38.020Z,110.57
2018-12-20T07:11:06.899Z,102.87
2018-12-20T07:13:35.702Z,100.93
2018-12-20T07:16:04.362Z,104.33
2018-12-20T07:18:33.034Z,100.97
2018-12-20T07:21:01.833Z,105.40
2018-12-20T07:23:30.610Z,115.10
2018-12-20T07:25:59.451Z,123.47
2018-12-20T07:28:28.008Z,112.60
2018-12-20T07:30:56.595Z,123.47
2018-12-20T07:33:25.209Z,112.50
2018-12-20T07:35:54.000Z,120.40
2018-12-20T07:38:22.584Z,118.27
2018-12-20T07:40:51.696Z,113.87
2018-12-20T07:43:21.516Z,110.10
2018-12-20T07:45:50.227Z,116.83
2018-12-20T07:48:18.756Z,109.30
2018-12-20T07:50:47.565Z,106.53
2018-12-20T07:53:16.565Z,113.43
2018-12-20T07:55:45.151Z,115.43
2018-12-20T07:58:13.921Z,120.57
2018-12-20T08:00:42.571Z,112.67
2018-12-20T08:03:11.208Z,123.53
2018-12-20T08:05:39.877Z,110.40
2018-12-20T08:08:08.421Z,112.63
2018-12-20T08:10:37.229Z,111.53
2018-12-20T08:13:05.808Z,119.27
2018-12-20T08:15:34.576Z,115.80
2018-12-20T08:18:03.134Z,109.00
2018-12-20T08:20:31.710Z,119.03
2018-12-20T08:23:00.284Z,118.40
2018-12-20T08:25:28.844Z,117.70
2018-12-20T08:27:57.397Z,120.80
2018-12-20T08:30:26.203Z,116.87
2018-12-20T08:32:54.967Z,118.67
2018-12-20T08:35:23.687Z,121.20
2018-12-20T08:37:52.453Z,125.57
2018-12-20T08:40:21.272Z,134.33
2018-12-20T08:42:49.856Z,138.83
2018-12-20T08:45:18.655Z,123.87
2018-12-20T08:47:47.286Z,124.30
2018-12-20T08:50:15.843Z,128.37
2018-12-20T08:52:44.380Z,121.03
2018-12-20T08:55:12.935Z,107.73
2018-12-20T08:57:41.460Z,110.80
2018-12-20T09:00:10.474Z,113.30
2018-12-20T09:02:39.022Z,149.90
2018-12-20T09:05:07.881Z,135.20
2018-12-20T09:07:36.652Z,136.93
2018-12-20T09:10:05.330Z,127.03
2018-12-20T09:12:33.874Z,121.37
2018-12-20T09:15:02.742Z,118.20
2018-12-20T09:17:31.354Z,119.87
2018-12-20T09:20:00.172Z,117.13
2018-12-20T09:22:28.789Z,111.00
2018-12-20T09:24:57.354Z,114.30
2018-12-20T09:27:26.095Z,114.67
2018-12-20T09:29:54.796Z,116.03
2018-12-20T09:32:23.338Z,126.37
2018-12-20T09:34:52.175Z,116.47
2018-12-20T09:37:21.647Z,104.03
2018-12-20T09:39:50.441Z,110.23
2018-12-20T09:42:19.019Z,111.97
2018-12-20T09:44:47.687Z,107.73
2018-12-20T09:47:21.526Z,101.03
2018-12-20T09:49:50.075Z,111.57
2018-12-20T09:52:18.593Z,106.23
2018-12-20T09:54:47.155Z,111.43
2018-12-20T09:57:15.703Z,102.57
2018-12-20T09:59:44.468Z,105.93
2018-12-20T10:02:12.991Z,108.90
2018-12-20T10:04:41.838Z,114.40
2018-12-20T10:07:10.366Z,124.80
2018-12-20T10:09:39.169Z,132.73
2018-12-20T10:12:07.696Z,143.87
2018-12-20T10:14:36.237Z,140.03
2018-12-20T10:17:04.775Z,116.77
2018-12-20T10:19:33.684Z,114.37
2018-12-20T10:22:02.331Z,108.63
2018-12-20T10:24:30.953Z,115.50
2018-12-20T10:26:59.486Z,113.80
2018-12-20T10:29:28.306Z,118.87
2018-12-20T10:31:56.832Z,143.80
2018-12-20T10:34:25.380Z,127.03
2018-12-20T10:36:54.101Z,133.93
2018-12-20T10:39:22.767Z,143.13
2018-12-20T10:41:51.317Z,150.00
2018-12-20T10:44:20.161Z,155.30
2018-12-20T10:46:48.684Z,159.07
2018-12-20T10:49:17.436Z,153.63
2018-12-20T10:51:45.983Z,162.00
2018-12-20T10:54:14.537Z,159.10
2018-12-20T10:56:43.098Z,157.40
2018-12-20T10:59:11.694Z,141.37
2018-12-20T11:01:45.485Z,132.57
2018-12-20T11:04:22.710Z,138.60
2018-12-20T11:06:56.585Z,145.40
2018-12-20T11:09:30.539Z,147.47
2018-12-20T11:12:10.652Z,149.03
2018-12-20T11:14:39.740Z,152.13
2018-12-20T11:17:08.666Z,156.70
2018-12-20T11:19:37.315Z,158.63
2018-12-20T11:22:05.865Z,154.17
2018-12-20T11:24:34.948Z,167.77
2018-12-20T11:27:03.707Z,171.57
2018-12-20T11:29:32.761Z,162.13
2018-12-20T11:32:01.298Z,156.33
2018-12-20T11:34:30.087Z,167.30
2018-12-20T11:36:58.781Z,168.00
2018-12-20T11:39:27.337Z,172.00
2018-12-20T11:41:55.883Z,163.87
2018-12-20T11:44:24.493Z,164.60
2018-12-20T11:46:53.019Z,180.73
2018-12-20T11:49:21.579Z,178.37
2018-12-20T11:51:50.387Z,167.17
2018-12-20T11:54:19.295Z,169.20
2018-12-20T11:56:47.854Z,156.90
2018-12-20T11:59:16.936Z,130.77
2018-12-20T12:01:45.470Z,128.20
2018-12-20T12:04:14.122Z,96.73
2018-12-20T12:06:42.654Z,96.63
2018-12-20T12:09:11.179Z,86.93
2018-12-20T12:11:39.737Z,94.97
2018-12-20T12:14:08.507Z,98.00
2018-12-20T12:16:37.025Z,93.90
2018-12-20T12:19:05.996Z,85.83
2018-12-20T12:21:34.540Z,83.57
2018-12-20T12:24:03.091Z,75.37
2018-12-20T12:26:31.646Z,69.60
2018-12-20T12:29:00.457Z,55.80
2018-12-20T12:31:29.107Z,55.73
2018-12-20T12:33:57.634Z,57.57
2018-12-20T12:36:26.177Z,53.50
2018-12-20T12:38:54.924Z,51.10
2018-12-20T12:41:23.450Z,54.53
2018-12-20T12:43:52.008Z,61.20
2018-12-20T12:46:20.526Z,52.53
2018-12-20T12:48:49.344Z,55.27
2018-12-20T12:51:17.860Z,61.50
2018-12-20T12:53:46.443Z,55.17
2018-12-20T12:56:15.130Z,52.87
2018-12-20T12:58:43.726Z,56.47
2018-12-20T13:01:12.350Z,65.20
2018-12-20T13:03:41.093Z,51.60
2018-12-20T13:06:09.651Z,47.83
2018-12-20T13:08:38.328Z,50.37
2018-12-20T13:11:06.872Z,52.13
2018-12-20T13:13:35.622Z,55.30
2018-12-20T13:16:04.159Z,49.83
2018-12-20T13:18:32.860Z,45.00
2018-12-20T13:21:01.409Z,50.07
2018-12-20T13:23:29.966Z,49.60
2018-12-20T13:25:58.671Z,47.27
2018-12-20T13:28:27.455Z,45.80
2018-12-20T13:30:56.025Z,42.83
2018-12-20T13:33:24.746Z,43.40
2018-12-20T13:35:53.485Z,36.87
2018-12-20T13:38:22.323Z,42.90
2018-12-20T13:40:50.954Z,46.93
2018-12-20T13:43:19.522Z,48.87
2018-12-20T13:45:48.077Z,48.70
2018-12-20T13:48:22.168Z,45.07
2018-12-20T13:50:47.359Z,50.13
2018-12-20T13:53:16.139Z,49.10
2018-12-20T13:55:44.691Z,44.27
2018-12-20T13:58:13.275Z,46.77
2018-12-20T14:00:41.983Z,47.53
2018-12-20T14:03:10.846Z,44.90
2018-12-20T14:05:39.411Z,46.93
2018-12-20T14:08:08.126Z,45.40
2018-12-20T14:10:36.664Z,42.27
2018-12-20T14:13:05.516Z,46.17
2018-12-20T14:15:34.054Z,46.80
2018-12-20T14:18:02.674Z,43.40
2018-12-20T14:20:31.222Z,37.30
2018-12-20T14:22:59.743Z,37.90
2018-12-20T14:25:28.578Z,48.57
2018-12-20T14:27:57.287Z,58.20
2018-12-20T14:30:26.238Z,46.07
2018-12-20T14:32:55.022Z,44.50
2018-12-20T14:35:24.057Z,42.03
2018-12-20T14:37:52.757Z,52.07
2018-12-20T14:40:21.848Z,42.40
2018-12-20T14:42:50.696Z,37.40
2018-12-20T14:45:19.320Z,45.67
2018-12-20T14:47:48.080Z,44.53
2018-12-20T14:50:16.953Z,50.37
2018-12-20T14:52:45.883Z,46.27
2018-12-20T14:55:14.699Z,46.03
2018-12-20T14:57:43.524Z,52.63
2018-12-20T15:00:12.794Z,42.13
2018-12-20T15:02:41.476Z,43.33
2018-12-20T15:05:10.502Z,37.57
2018-12-20T15:07:39.209Z,39.27
2018-12-20T15:10:09.722Z,36.27
2018-12-20T15:12:38.483Z,42.00
2018-12-20T15:15:08.904Z,32.23
2018-12-20T15:17:37.500Z,40.00
2018-12-20T15:20:07.931Z,36.03
2018-12-20T15:22:36.475Z,40.40
2018-12-20T15:25:05.624Z,46.07
2018-12-20T15:27:34.240Z,38.27
2018-12-20T15:30:03.129Z,41.50
2018-12-20T15:32:31.811Z,37.77
2018-12-20T15:35:00.585Z,41.83
2018-12-20T15:37:29.129Z,38.07
2018-12-20T15:39:57.845Z,38.30
2018-12-20T15:42:26.398Z,38.10
2018-12-20T15:44:54.992Z,38.47
2018-12-20T15:47:23.564Z,41.53
2018-12-20T15:49:52.459Z,39.60
2018-12-20T15:52:21.094Z,40.50
2018-12-20T15:54:49.716Z,40.37
2018-12-20T15:57:18.361Z,40.93
2018-12-20T15:59:47.082Z,38.80
2018-12-20T16:02:15.858Z,33.77
2018-12-20T16:04:44.961Z,40.13
2018-12-20T16:07:13.748Z,41.23
2018-12-20T16:09:42.672Z,37.23
2018-12-20T16:12:11.209Z,41.30
2018-12-20T16:14:39.755Z,36.03
2018-12-20T16:17:08.294Z,38.03
2018-12-20T16:19:37.058Z,42.13
2018-12-20T16:22:06.003Z,38.20
2018-12-20T16:24:34.898Z,37.77
2018-12-20T16:27:03.761Z,37.27
2018-12-20T16:29:32.710Z,40.40
2018-12-20T16:32:01.371Z,43.73
2018-12-20T16:34:30.266Z,38.80
2018-12-20T16:36:58.826Z,41.43
2018-12-20T16:39:27.527Z,38.37
2018-12-20T16:41:56.196Z,38.00
2018-12-20T16:44:24.768Z,40.43
2018-12-20T16:46:53.538Z,44.33
2018-12-20T16:49:22.419Z,44.57
2018-12-20T16:51:50.992Z,45.83
2018-12-20T16:54:19.640Z,41.43
2018-12-20T16:56:48.279Z,45.33
2018-12-20T16:59:17.218Z,42.50
2018-12-20T17:01:45.758Z,37.80
2018-12-20T17:04:14.828Z,42.77
2018-12-20T17:06:43.546Z,45.77
2018-12-20T17:09:12.749Z,44.23
2018-12-20T17:11:41.410Z,38.63
2018-12-20T17:14:10.090Z,46.03
2018-12-20T17:16:38.741Z,43.97
2018-12-20T17:19:07.392Z,43.07
2018-12-20T17:21:35.948Z,44.37
2018-12-20T17:24:04.801Z,46.10
2018-12-20T17:26:33.388Z,46.97
2018-12-20T17:29:02.402Z,46.40
2018-12-20T17:31:31.112Z,47.50
2018-12-20T17:34:01.800Z,46.63
2018-12-20T17:36:30.703Z,40.17
2018-12-20T17:38:59.466Z,56.57
2018-12-20T17:41:28.113Z,59.03
2018-12-20T17:43:56.862Z,57.10
2018-12-20T17:46:25.843Z,46.00
2018-12-20T17:48:54.838Z,60.00
2018-12-20T17:51:23.920Z,71.60
2018-12-20T17:53:52.871Z,62.77
2018-12-20T17:56:21.477Z,54.00
2018-12-20T17:58:50.334Z,61.33
2018-12-20T18:01:18.950Z,67.50
2018-12-20T18:03:47.762Z,70.53
2018-12-20T18:06:16.524Z,55.90
2018-12-20T18:08:46.135Z,69.33
2018-12-20T18:11:15.188Z,48.70
2018-12-20T18:13:44.228Z,52.93
2018-12-20T18:16:12.835Z,50.00
2018-12-20T18:18:41.749Z,51.27
2018-12-20T18:21:10.433Z,49.97
2018-12-20T18:23:39.305Z,52.73
2018-12-20T18:26:08.032Z,45.70
2018-12-20T18:28:36.905Z,46.97
2018-12-20T18:31:05.720Z,48.30
2018-12-20T18:33:34.565Z,49.27
2018-12-20T18:36:03.536Z,49.63
2018-12-20T18:38:32.810Z,46.43
2018-12-20T18:41:01.645Z,47.93
2018-12-20T18:43:30.600Z,47.17
2018-12-20T18:45:59.456Z,46.93
2018-12-20T18:48:28.550Z,49.77
2018-12-20T18:50:57.310Z,49.67
2018-12-20T18:53:26.438Z,49.33
2018-12-20T18:55:54.982Z,52.13
2018-12-20T18:58:23.587Z,54.63
2018-12-20T19:00:52.287Z,51.00
2018-12-20T19:03:21.379Z,47.07
2018-12-20T19:05:50.070Z,60.63
2018-12-20T19:08:18.924Z,52.83
2018-12-20T19:10:47.539Z,53.70
2018-12-20T19:13:16.626Z,58.53
2018-12-20T19:15:45.250Z,53.33
2018-12-20T19:18:14.208Z,53.67
2018-12-20T19:20:42.982Z,56.73
2018-12-20T19:23:11.805Z,58.57
2018-12-20T19:25:40.718Z,55.17
2018-12-20T19:28:09.522Z,54.33
2018-12-20T19:30:38.109Z,58.00
2018-12-20T19:33:07.123Z,56.77
2018-12-20T19:35:35.808Z,59.37
2018-12-20T19:38:04.502Z,54.17
2018-12-20T19:40:33.177Z,53.97
2018-12-20T19:43:02.056Z,51.90
2018-12-20T19:45:30.779Z,56.10
2018-12-20T19:47:59.637Z,55.77
2018-12-20T19:50:28.238Z,53.50
2018-12-20T19:52:57.288Z,50.10
2018-12-20T19:55:26.036Z,48.37
2018-12-20T19:57:55.461Z,50.70
2018-12-20T20:00:24.183Z,52.27
2018-12-20T20:02:52.758Z,53.93
2018-12-20T20:05:21.332Z,53.73
2018-12-20T20:07:50.267Z,45.90
2018-12-20T20:10:19.299Z,52.33
2018-12-20T20:12:49.095Z,52.80
2018-12-20T20:15:18.024Z,48.33
2018-12-20T20:17:47.579Z,54.40
2018-12-20T20:20:16.413Z,56.60
2018-12-20T20:22:45.079Z,50.83
2018-12-20T20:25:13.629Z,53.03
2018-12-20T20:27:42.260Z,53.73
2018-12-20T20:30:13.743Z,48.87
2018-12-20T20:32:42.698Z,48.97
2018-12-20T20:35:11.276Z,53.63
2018-12-20T20:37:40.070Z,51.70
2018-12-20T20:40:10.476Z,51.50
2018-12-20T20:42:39.157Z,52.20
2018-12-20T20:45:07.827Z,52.80
2018-12-20T20:47:36.428Z,61.20
2018-12-20T20:50:06.700Z,51.77
2018-12-20T20:52:35.297Z,54.80
2018-12-20T20:55:05.784Z,56.93
2018-12-20T20:57:34.550Z,53.50
2018-12-20T21:00:03.345Z,56.53
2018-12-20T21:02:31.941Z,54.00
2018-12-20T21:05:00.634Z,50.83
2018-12-20T21:07:29.884Z,52.27
2018-12-20T21:09:58.634Z,45.63
2018-12-20T21:12:27.227Z,52.67
2018-12-20T21:14:55.769Z,50.90
2018-12-20T21:17:24.362Z,48.90
2018-12-20T21:19:52.941Z,49.53
2018-12-20T21:22:21.821Z,51.27
2018-12-20T21:24:50.548Z,51.27
2018-12-20T21:27:19.277Z,51.20
2018-12-20T21:29:47.857Z,44.30
2018-12-20T21:32:16.509Z,54.70
2018-12-20T21:34:45.062Z,49.00
2018-12-20T21:37:13.643Z,47.30
2018-12-20T21:39:42.423Z,49.83
2018-12-20T21:42:11.168Z,51.57
2018-12-20T21:44:39.746Z,49.40
2018-12-20T21:47:08.297Z,50.63
2018-12-20T21:49:36.904Z,54.93
2018-12-20T21:52:06.672Z,55.67
2018-12-20T21:54:35.192Z,44.47
2018-12-20T21:57:04.058Z,54.00
2018-12-20T21:59:32.743Z,59.23
2018-12-20T22:02:01.565Z,54.60
2018-12-20T22:04:30.114Z,55.33
2018-12-20T22:06:58.696Z,60.83
2018-12-20T22:09:27.243Z,54.57
2018-12-20T22:11:56.100Z,61.40
2018-12-20T22:14:24.699Z,54.53
2018-12-20T22:16:53.271Z,51.67
2018-12-20T22:19:21.831Z,53.83
2018-12-20T22:21:50.681Z,52.20
2018-12-20T22:24:19.255Z,55.87
2018-12-20T22:26:48.055Z,56.07
2018-12-20T22:29:16.616Z,48.17
2018-12-20T22:31:45.192Z,55.87
2018-12-20T22:34:13.773Z,56.70
2018-12-20T22:36:42.806Z,55.10
2018-12-20T22:39:11.380Z,52.63
2018-12-20T22:41:39.961Z,52.93
2018-12-20T22:44:08.558Z,57.17
2018-12-20T22:46:37.136Z,50.20
2018-12-20T22:49:05.821Z,50.33
2018-12-20T22:51:34.408Z,48.63
2018-12-20T22:54:03.005Z,48.27
2018-12-20T22:56:31.933Z,44.60
2018-12-20T22:59:00.511Z,45.17
2018-12-20T23:01:29.094Z,50.10
2018-12-20T23:03:57.674Z,45.40
2018-12-20T23:06:26.270Z,42.67
2018-12-20T23:08:54.845Z,43.93
2018-12-20T23:11:23.447Z,47.73
2018-12-20T23:13:52.108Z,48.70
2018-12-20T23:16:20.704Z,41.93
2018-12-20T23:18:49.297Z,46.03
2018-12-20T23:21:17.870Z,43.67
2018-12-20T23:23:47.473Z,46.30
2018-12-20T23:26:16.629Z,38.57
2018-12-20T23:28:45.324Z,41.93
2018-12-20T23:31:14.043Z,38.17
2018-12-20T23:33:42.593Z,36.77
2018-12-20T23:36:11.224Z,39.13
2018-12-20T23:38:39.822Z,36.57
2018-12-20T23:41:08.664Z,41.90
2018-12-20T23:43:37.212Z,40.10
2018-12-20T23:46:06.041Z,41.43
2018-12-20T23:48:34.615Z,41.07
2018-12-20T23:51:03.239Z,40.60
2018-12-20T23:53:31.778Z,39.03
2018-12-20T23:56:00.524Z,42.30
2018-12-20T23:58:29.080Z,43.60
